Stevensville, MD

4:28 PM EDT on June 25, 2017 (GMT -0400)
Stevensville

Weather History for KW29 - December, 2011

Change the Weather History Date:

Friday, December 23, 2011

  Actual Average (KESN) Record (KESN)
Temperature  
Mean Temperature 48 °F -  
Max Temperature 55 °F 45 °F 69 °F (2015)
Min Temperature 41 °F 27 °F 10 °F (1960)
Degree Days  
Heating Degree Days 17    
Moisture  
Dew Point 42 °F    
Average Humidity 80    
Maximum Humidity 100    
Minimum Humidity 54    
Precipitation  
Precipitation 0.00 in - - ()
Sea Level Pressure  
Sea Level Pressure 30.03 in    
Wind  
Wind Speed 8 mph (NW)    
Max Wind Speed 16 mph    
Max Gust Speed 24 mph    
Visibility 8 miles    
Events      
Averages and records for this station are not official NWS values.
T = Trace of Precipitation, MM = Missing Value Source: NWS Daily Summary

Daily Weather History Graph

Daily Weather History Graph

Search for Another Location

Airport or City:

Trip Planner

Search our weather history database for the weather conditions in past years. The results will help you decide how hot, cold, wet, or windy it might be!

Date:

Astronomy

Dec. 23, 2011 Rise Set
Actual Time 7:21 AM EST 4:47 PM EST
Civil Twilight 6:51 AM EST 5:17 PM EST
Nautical Twilight 6:17 AM EST 5:50 PM EST
Astronomical Twilight 5:45 AM EST 6:23 PM EST
Moon 6:08 AM EST (12/23) 3:53 PM EST (12/23)
Length of Visible Light 10h 26m
Length of Day
9h 25m
Waning Crescent, 1% of the Moon is Illuminated
Dec 23
Waning Crescent
Dec 24
New
Jan 1
First Quarter
Jan 9
Full
Jan 16
Last Quarter

Hourly Weather History & Observations

Time (EST) Temp. Windchill Dew Point Humidity Pressure Visibility Wind Dir Wind Speed Gust Speed Precip Events Conditions
12:35 AM 51.8 °F - 51.8 °F 100% 29.77 in 3.0 mi SSE 9.2 mph - N/A   Overcast
12:54 AM 55.4 °F - 55.4 °F 100% 29.76 in 4.0 mi South 6.9 mph 16.1 mph N/A   Overcast
1:13 AM 51.8 °F - 51.8 °F 100% 29.76 in 0.8 mi West 5.8 mph 16.1 mph N/A   Overcast
1:33 AM 50.0 °F - 50.0 °F 100% 29.75 in 0.2 mi West 3.5 mph - N/A   Overcast
1:52 AM 50.0 °F - 50.0 °F 100% 29.76 in 0.5 mi SW 4.6 mph - N/A   Overcast
2:11 AM 50.0 °F - 50.0 °F 100% 29.77 in 0.8 mi NW 6.9 mph - N/A   Overcast
2:31 AM 46.4 °F 43.5 °F 46.4 °F 100% 29.77 in 1.0 mi NNW 5.8 mph - N/A   Overcast
3:09 AM 46.4 °F 45.2 °F 46.4 °F 100% 29.76 in 2.0 mi NNW 3.5 mph - N/A   Overcast
3:29 AM 46.4 °F 45.2 °F 46.4 °F 100% 29.76 in 2.0 mi NNW 3.5 mph - N/A   Overcast
3:48 AM 48.2 °F - 48.2 °F 100% 29.80 in 2.0 mi WNW 9.2 mph 18.4 mph N/A   Overcast
4:07 AM 48.2 °F - 48.2 °F 100% 29.81 in 4.0 mi WNW 5.8 mph - N/A   Overcast
4:26 AM 48.2 °F - 48.2 °F 100% 29.82 in 5.0 mi WNW 8.1 mph - N/A   Overcast
4:46 AM 48.2 °F - 48.2 °F 100% 29.84 in 10.0 mi WNW 12.7 mph 19.6 mph N/A   Overcast
5:05 AM 48.2 °F - 48.2 °F 100% 29.85 in 10.0 mi NW 12.7 mph 18.4 mph N/A   Overcast
5:24 AM 48.2 °F - 48.2 °F 100% 29.87 in 10.0 mi NW 10.4 mph - N/A   Overcast
5:44 AM 48.2 °F - 48.2 °F 100% 29.89 in 10.0 mi NW 12.7 mph - N/A   Overcast
6:03 AM 46.4 °F 42.4 °F 46.4 °F 100% 29.91 in 10.0 mi NW 8.1 mph 16.1 mph N/A   Mostly Cloudy
6:22 AM 46.4 °F 40.7 °F 46.4 °F 100% 29.93 in 10.0 mi NW 12.7 mph - N/A   Mostly Cloudy
6:42 AM 46.4 °F 41.1 °F 46.4 °F 100% 29.95 in 10.0 mi WNW 11.5 mph 18.4 mph N/A   Overcast
7:01 AM 48.2 °F - 48.2 °F 100% 29.96 in 10.0 mi NW 13.8 mph - N/A   Overcast
7:20 AM 48.2 °F - 48.2 °F 100% 29.98 in 10.0 mi NW 9.2 mph 18.4 mph N/A   Overcast
7:39 AM 48.2 °F - 48.2 °F 100% 29.99 in 10.0 mi NW 11.5 mph - N/A   Overcast
7:59 AM 48.2 °F - 48.2 °F 100% 30.01 in 10.0 mi NW 6.9 mph - N/A   Overcast
8:18 AM 50.0 °F - 48.2 °F 94% 30.02 in 10.0 mi NW 9.2 mph - N/A   Mostly Cloudy
8:37 AM 50.0 °F - 48.2 °F 94% 30.04 in 10.0 mi NW 8.1 mph - N/A   Overcast
8:57 AM 50.0 °F - 48.2 °F 94% 30.03 in 10.0 mi NW 5.8 mph - N/A   Scattered Clouds
9:16 AM 51.8 °F - 46.4 °F 82% 30.06 in 10.0 mi WNW 4.6 mph - N/A   Clear
9:35 AM 51.8 °F - 46.4 °F 82% 30.07 in 10.0 mi WNW 10.4 mph 16.1 mph N/A   Clear
9:54 AM 51.8 °F - 44.6 °F 76% 30.08 in 10.0 mi WNW 11.5 mph 18.4 mph N/A   Clear
10:14 AM 51.8 °F - 44.6 °F 76% 30.08 in 10.0 mi WNW 8.1 mph - N/A   Clear
10:33 AM 51.8 °F - 42.8 °F 71% 30.08 in 10.0 mi NW 9.2 mph - N/A   Scattered Clouds
11:11 AM 53.6 °F - 42.8 °F 67% 30.09 in 10.0 mi NNW 9.2 mph 16.1 mph N/A   Clear
11:31 AM 51.8 °F - 41.0 °F 67% 30.09 in 10.0 mi NW 15.0 mph - N/A   Mostly Cloudy
11:50 AM 51.8 °F - 39.2 °F 62% 30.10 in 10.0 mi NW 16.1 mph 19.6 mph N/A   Mostly Cloudy
12:09 PM 51.8 °F - 39.2 °F 62% 30.10 in 10.0 mi NW 15.0 mph 19.6 mph N/A   Overcast
12:29 PM 50.0 °F - 39.2 °F 66% 30.10 in 10.0 mi WNW 12.7 mph 21.9 mph N/A   Overcast
12:48 PM 50.0 °F - 37.4 °F 62% 30.11 in 10.0 mi NW 10.4 mph 17.3 mph N/A   Overcast
1:07 PM 50.0 °F - 37.4 °F 62% 30.11 in 10.0 mi NW 11.5 mph 18.4 mph N/A   Overcast
1:27 PM 50.0 °F - 37.4 °F 62% 30.11 in 10.0 mi NW 8.1 mph - N/A   Mostly Cloudy
1:46 PM 51.8 °F - 37.4 °F 58% 30.12 in 10.0 mi NNW 8.1 mph - N/A   Scattered Clouds
2:05 PM 50.0 °F - 37.4 °F 62% 30.12 in 10.0 mi NNW 11.5 mph - N/A   Scattered Clouds
2:24 PM 51.8 °F - 37.4 °F 58% 30.13 in 10.0 mi NNW 9.2 mph 17.3 mph N/A   Mostly Cloudy
2:44 PM 50.0 °F - 35.6 °F 58% 30.13 in 10.0 mi NNW 12.7 mph 17.3 mph N/A   Overcast
3:03 PM 50.0 °F - 35.6 °F 58% 30.14 in 10.0 mi NNW 11.5 mph 18.4 mph N/A   Mostly Cloudy
3:22 PM 46.4 °F 40.4 °F 35.6 °F 66% 30.14 in 10.0 mi NW 13.8 mph - N/A   Scattered Clouds
3:42 PM 48.2 °F - 33.8 °F 58% 30.15 in 10.0 mi NW 15.0 mph 21.9 mph N/A   Scattered Clouds
4:01 PM 48.2 °F - 32.0 °F 54% 30.16 in 10.0 mi NW 11.5 mph 16.1 mph N/A   Mostly Cloudy
4:20 PM 48.2 °F - 33.8 °F 58% 30.17 in 10.0 mi WNW 9.2 mph 18.4 mph N/A   Overcast
4:59 PM 46.4 °F 41.9 °F 32.0 °F 57% 30.18 in 10.0 mi WNW 9.2 mph - N/A   Overcast
5:18 PM 46.4 °F 40.1 °F 32.0 °F 57% 30.19 in 10.0 mi NW 15.0 mph 24.2 mph N/A   Overcast
6:55 PM 44.6 °F 41.4 °F 32.0 °F 61% 30.23 in 10.0 mi NW 5.8 mph - N/A   Scattered Clouds
7:14 PM 42.8 °F 40.1 °F 32.0 °F 66% 30.24 in 10.0 mi NW 4.6 mph - N/A   Clear
7:33 PM 42.8 °F 40.1 °F 32.0 °F 66% 30.24 in 10.0 mi NNW 4.6 mph - N/A   Clear
7:52 PM 42.8 °F 40.1 °F 32.0 °F 66% 30.24 in 10.0 mi NW 4.6 mph - N/A   Clear
8:12 PM 42.8 °F 39.3 °F 32.0 °F 66% 30.24 in 10.0 mi NW 5.8 mph - N/A   Clear
8:31 PM 42.8 °F 40.1 °F 32.0 °F 66% 30.24 in 10.0 mi NW 4.6 mph - N/A   Clear
8:50 PM 41.0 °F - 32.0 °F 70% 30.24 in 10.0 mi Calm Calm - N/A   Clear
9:29 PM 41.0 °F 37.1 °F 32.0 °F 70% 30.24 in 10.0 mi NNW 5.8 mph - N/A   Clear
9:48 PM 42.8 °F 40.1 °F 32.0 °F 66% 30.24 in 10.0 mi NNW 4.6 mph - N/A   Clear
10:46 PM 42.8 °F 39.3 °F 32.0 °F 66% 30.25 in 10.0 mi North 5.8 mph - N/A   Overcast
11:06 PM 42.8 °F 38.0 °F 32.0 °F 66% 30.25 in 10.0 mi North 8.1 mph - N/A   Overcast
11:25 PM 42.8 °F 38.0 °F 32.0 °F 66% 30.25 in 10.0 mi North 8.1 mph - N/A   Overcast
11:44 PM 42.8 °F 38.0 °F 30.2 °F 61% 30.25 in 10.0 mi North 8.1 mph - N/A   Overcast